Ashland, Nebraska
Current Conditions -  °F | °C
As of 8:35 PM on Saturday 22 Nov 2014 (Local Time) from KMLE Reporting Station
Overcast Overcast  
Wind Chill: 57°   Ceiling: 1300
Heat Index: 57°   Visibility: 10mi
Dew Point: 54°   Wind: 7mph
Humidity: 88%   Direction: 160°SSE
Pressure: 29.59"   Gusts: NA
Location:  41.04°N, 96.37°W
Report Text: KMLE 230235Z AUTO 16006KT 10SM OVC013 14/12 A2959 RMK AO2 T01400121
Loading
Personal Weather Stations






























Interactive Weather Map New forecast layout! Learn more

10-Day Weather Forecast

Advertisements
Track Severe Weather on mobile